Time;durP1;ratioP1;P1;durP2;ratioP2;P2;SDS_P1;SDS_P2;PMS_P1;PMS_P2;Temp;Humidity;BMP_temperature;BMP_pressure;BME280_temperature;BME280_humidity;BME280_pressure;Samples;Min_cycle;Max_cycle;Signal;HPM_P1;HPM_P2
2022/11/08 00:02:01;;;;;;;;;;;6.60;99.90;;;;;;2603538;54;19993;31
2022/11/08 00:04:39;;;;;;;;;;;6.60;99.90;;;;;;2603580;54;19986;31
2022/11/08 00:15:33;;;;;;;;;;;6.50;99.90;;;;;;2603637;54;20765;31
2022/11/08 00:18:07;;;;;;;;;;;6.50;99.90;;;;;;2603449;54;19935;31
2022/11/08 00:20:44;;;;;;;;;;;6.50;99.90;;;;;;2622231;46;19997;31
2022/11/08 00:23:20;;;;;;;;;;;6.50;99.90;;;;;;2603937;54;20747;31
2022/11/08 00:25:55;;;;;;;;;;;6.50;99.90;;;;;;2603657;54;20720;31
2022/11/08 00:28:29;;;;;;;;;;;6.50;99.90;;;;;;2603541;54;19941;31
2022/11/08 00:31:06;;;;;;;;;;;6.40;99.90;;;;;;2603523;54;20788;31
2022/11/08 00:33:40;;;;;;;;;;;6.30;99.90;;;;;;2603679;54;19934;31
2022/11/08 00:36:17;;;;;;;;;;;6.30;99.90;;;;;;2603169;54;20804;31
2022/11/08 00:38:51;;;;;;;;;;;6.30;99.90;;;;;;2603534;54;20783;31
2022/11/08 00:41:25;;;;;;;;;;;6.30;99.90;;;;;;2622294;46;20889;31
2022/11/08 00:44:00;;;;;;;;;;;6.30;99.90;;;;;;2622423;46;19935;31
2022/11/08 00:46:34;;;;;;;;;;;6.30;99.90;;;;;;2603504;54;20775;31
2022/11/08 00:49:08;;;;;;;;;;;6.20;99.90;;;;;;2622033;46;19941;31
2022/11/08 00:51:45;;;;;;;;;;;6.20;99.90;;;;;;2773509;31;20632;31
2022/11/08 00:54:19;;;;;;;;;;;6.20;99.90;;;;;;2603704;54;20735;31
2022/11/08 00:56:52;;;;;;;;;;;6.20;99.90;;;;;;2621925;46;19941;31
2022/11/08 00:59:26;;;;;;;;;;;7.10;99.90;;;;;;2603485;54;19946;31
2022/11/08 01:02:01;;;;;;;;;;;6.10;99.90;;;;;;2622160;46;19965;31
2022/11/08 01:04:36;;;;;;;;;;;6.10;99.90;;;;;;2603386;54;20585;31
2022/11/08 01:07:12;;;;;;;;;;;6.10;99.90;;;;;;2603342;54;19934;31
2022/11/08 01:09:46;;;;;;;;;;;6.10;99.90;;;;;;2603533;54;19948;31
2022/11/08 01:12:20;;;;;;;;;;;6.10;99.90;;;;;;2603643;54;19935;31
2022/11/08 01:14:54;;;;;;;;;;;6.00;99.90;;;;;;2621852;46;20022;31
2022/11/08 01:17:28;;;;;;;;;;;6.00;99.90;;;;;;2603477;54;20523;31
2022/11/08 01:20:02;;;;;;;;;;;6.00;99.90;;;;;;2603431;54;20710;31
2022/11/08 01:22:39;;;;;;;;;;;6.00;99.90;;;;;;2603462;54;19946;31
2022/11/08 01:25:13;;;;;;;;;;;6.00;99.90;;;;;;2603561;54;20488;31
2022/11/08 01:27:47;;;;;;;;;;;5.90;99.90;;;;;;2603221;54;20743;31
2022/11/08 01:30:21;;;;;;;;;;;5.90;99.90;;;;;;2603304;54;20823;31
2022/11/08 01:32:55;;;;;;;;;;;5.90;99.90;;;;;;2603542;54;19957;31
2022/11/08 01:35:28;;;;;;;;;;;5.90;99.90;;;;;;2622067;46;19934;31
2022/11/08 01:38:05;;;;;;;;;;;5.80;99.90;;;;;;2603592;54;19935;31
2022/11/08 01:40:43;;;;;;;;;;;5.90;99.90;;;;;;2602504;54;19938;31
2022/11/08 01:43:32;;;;;;;;;;;5.90;99.90;;;;;;2603271;54;19942;31
2022/11/08 01:46:18;;;;;;;;;;;5.90;99.90;;;;;;2603199;54;19974;31
2022/11/08 01:48:53;;;;;;;;;;;5.80;99.90;;;;;;2621820;46;19935;31
2022/11/08 01:51:27;;;;;;;;;;;5.90;99.90;;;;;;2602860;54;20025;31
2022/11/08 01:54:04;;;;;;;;;;;5.80;99.90;;;;;;2603222;54;19956;31
2022/11/08 01:56:38;;;;;;;;;;;5.80;99.90;;;;;;2603194;54;20808;31
2022/11/08 01:59:12;;;;;;;;;;;5.80;99.90;;;;;;2603161;54;19957;31
2022/11/08 02:01:46;;;;;;;;;;;5.80;99.90;;;;;;2621640;46;19941;31
2022/11/08 02:04:20;;;;;;;;;;;5.80;99.90;;;;;;2622075;47;20729;31
2022/11/08 02:06:54;;;;;;;;;;;5.80;99.90;;;;;;2603044;54;19993;31
2022/11/08 02:09:31;;;;;;;;;;;5.80;99.90;;;;;;2603363;54;20763;31
2022/11/08 02:12:05;;;;;;;;;;;5.80;99.90;;;;;;2603210;54;20739;31
2022/11/08 02:14:39;;;;;;;;;;;5.70;99.90;;;;;;2603179;54;19934;31
2022/11/08 02:17:13;;;;;;;;;;;5.70;99.90;;;;;;2621820;47;19941;31
2022/11/08 02:19:47;;;;;;;;;;;5.70;99.90;;;;;;2621863;47;19934;31
2022/11/08 02:22:24;;;;;;;;;;;5.60;99.90;;;;;;2621366;47;20676;31
2022/11/08 02:25:00;;;;;;;;;;;5.60;99.90;;;;;;2621723;47;20788;31
2022/11/08 02:27:34;;;;;;;;;;;5.60;99.90;;;;;;2603066;54;19935;31
2022/11/08 02:30:09;;;;;;;;;;;5.50;99.90;;;;;;2603187;54;19998;31
2022/11/08 02:32:43;;;;;;;;;;;5.50;99.90;;;;;;2621705;47;19935;31
2022/11/08 02:35:18;;;;;;;;;;;5.50;99.90;;;;;;2603057;54;20772;31
2022/11/08 02:37:52;;;;;;;;;;;5.50;99.90;;;;;;2621372;47;20764;31
2022/11/08 02:40:29;;;;;;;;;;;5.50;99.90;;;;;;2602884;54;20745;31
2022/11/08 02:43:03;;;;;;;;;;;5.50;99.90;;;;;;2603097;54;20778;31
2022/11/08 02:45:37;;;;;;;;;;;5.50;99.90;;;;;;2603017;54;19985;31
2022/11/08 02:48:12;;;;;;;;;;;5.50;99.90;;;;;;2603000;54;20029;31
2022/11/08 02:50:46;;;;;;;;;;;5.50;99.90;;;;;;2701407;39;21263;31
2022/11/08 02:53:20;;;;;;;;;;;5.50;99.90;;;;;;2603091;54;19993;31
2022/11/08 02:55:56;;;;;;;;;;;5.50;99.90;;;;;;2701478;39;21468;31
2022/11/08 02:58:30;;;;;;;;;;;5.50;99.90;;;;;;2621783;47;21357;31
2022/11/08 03:01:04;;;;;;;;;;;5.50;99.90;;;;;;2603088;54;19954;31
2022/11/08 03:03:38;;;;;;;;;;;5.50;99.90;;;;;;2603937;54;20758;31
2022/11/08 03:06:12;;;;;;;;;;;5.50;99.90;;;;;;2603894;54;20750;31
2022/11/08 03:08:46;;;;;;;;;;;5.50;99.90;;;;;;2622661;46;19947;31
2022/11/08 03:11:23;;;;;;;;;;;5.50;99.90;;;;;;2603925;54;19934;31
2022/11/08 03:13:57;;;;;;;;;;;5.40;99.90;;;;;;2604019;54;19946;31
2022/11/08 03:16:31;;;;;;;;;;;5.40;99.90;;;;;;2622460;46;19960;31
2022/11/08 03:19:05;;;;;;;;;;;5.40;99.90;;;;;;2604084;54;19961;31
2022/11/08 03:21:39;;;;;;;;;;;5.40;99.90;;;;;;2622136;46;19934;31
2022/11/08 03:24:13;;;;;;;;;;;5.40;99.90;;;;;;2622633;46;19935;31
2022/11/08 03:26:49;;;;;;;;;;;5.30;99.90;;;;;;2604112;54;19940;31
2022/11/08 03:29:24;;;;;;;;;;;5.30;99.90;;;;;;2622056;46;19935;31
2022/11/08 03:31:58;;;;;;;;;;;5.30;99.90;;;;;;2622378;46;19954;31
2022/11/08 03:34:32;;;;;;;;;;;5.30;99.90;;;;;;2603759;54;20776;31
2022/11/08 03:37:06;;;;;;;;;;;5.30;99.90;;;;;;2622424;46;20020;31
2022/11/08 03:39:40;;;;;;;;;;;5.30;99.90;;;;;;2622199;46;19934;31
2022/11/08 03:42:17;;;;;;;;;;;5.30;99.90;;;;;;2603508;54;20711;31
2022/11/08 03:44:51;;;;;;;;;;;5.30;99.90;;;;;;2622394;46;20798;31
2022/11/08 03:47:25;;;;;;;;;;;5.30;99.90;;;;;;2622278;46;20815;31
2022/11/08 03:49:59;;;;;;;;;;;5.30;99.90;;;;;;2622559;46;19961;31
2022/11/08 03:52:33;;;;;;;;;;;5.30;99.90;;;;;;2603695;54;20763;31
2022/11/08 03:55:08;;;;;;;;;;;5.30;99.90;;;;;;2603673;54;20730;31
2022/11/08 03:57:43;;;;;;;;;;;5.30;99.90;;;;;;2622122;46;19942;31
2022/11/08 04:00:15;;;;;;;;;;;5.30;99.90;;;;;;2603590;54;19961;31
2022/11/08 04:02:51;;;;;;;;;;;5.30;99.90;;;;;;2702192;39;20390;31
2022/11/08 04:05:23;;;;;;;;;;;5.30;99.90;;;;;;2603657;54;19950;31
2022/11/08 04:07:57;;;;;;;;;;;5.30;99.90;;;;;;2622134;46;19961;31
2022/11/08 04:10:31;;;;;;;;;;;5.30;99.90;;;;;;2622296;46;19935;31
2022/11/08 04:15:54;;;;;;;;;;;5.30;99.90;;;;;;2622159;46;19934;31
2022/11/08 04:21:23;;;;;;;;;;;5.20;99.90;;;;;;2622105;46;20850;31
2022/11/08 04:23:57;;;;;;;;;;;5.20;99.90;;;;;;2603711;54;20774;31
2022/11/08 04:26:31;;;;;;;;;;;5.20;99.90;;;;;;2603886;54;19941;31
2022/11/08 04:29:07;;;;;;;;;;;5.20;99.90;;;;;;2622269;46;20781;31
2022/11/08 04:31:41;;;;;;;;;;;5.20;99.90;;;;;;2603783;54;19941;31
2022/11/08 04:34:15;;;;;;;;;;;5.20;99.90;;;;;;2603569;54;19989;31
2022/11/08 04:36:49;;;;;;;;;;;5.20;99.90;;;;;;2603762;54;19938;31
2022/11/08 04:39:23;;;;;;;;;;;5.10;99.90;;;;;;2603716;54;20794;31
2022/11/08 04:41:57;;;;;;;;;;;5.10;99.90;;;;;;2603505;54;19960;31
2022/11/08 04:44:38;;;;;;;;;;;5.20;99.90;;;;;;2603382;54;19946;31
2022/11/08 04:47:10;;;;;;;;;;;5.20;99.90;;;;;;2603713;54;20767;31
2022/11/08 04:49:44;;;;;;;;;;;5.20;99.90;;;;;;2603372;54;19942;31
2022/11/08 04:52:18;;;;;;;;;;;5.10;99.90;;;;;;2622106;46;20492;31
2022/11/08 04:54:52;;;;;;;;;;;5.10;99.90;;;;;;2622054;46;20832;31
2022/11/08 04:57:26;;;;;;;;;;;5.10;99.90;;;;;;2603518;54;20469;31
2022/11/08 05:00:02;;;;;;;;;;;5.10;99.90;;;;;;2603645;54;20821;31
2022/11/08 05:02:36;;;;;;;;;;;5.10;99.90;;;;;;2603546;54;20767;31
2022/11/08 05:05:11;;;;;;;;;;;5.10;99.90;;;;;;2603565;54;19934;31
2022/11/08 05:07:43;;;;;;;;;;;5.10;99.90;;;;;;2621852;46;20013;31
2022/11/08 05:10:16;;;;;;;;;;;5.10;99.90;;;;;;2603379;54;20790;31
2022/11/08 05:12:50;;;;;;;;;;;5.10;99.90;;;;;;2603359;54;19942;31
2022/11/08 05:15:26;;;;;;;;;;;5.10;99.90;;;;;;2622262;46;20720;31
2022/11/08 05:18:00;;;;;;;;;;;5.10;99.90;;;;;;2622155;46;19942;31
2022/11/08 05:23:26;;;;;;;;;;;5.40;99.90;;;;;;2603378;54;19957;31
2022/11/08 05:26:00;;;;;;;;;;;5.00;99.90;;;;;;2602970;54;19934;31
2022/11/08 05:28:33;;;;;;;;;;;5.00;99.90;;;;;;2621810;46;19943;31
2022/11/08 05:31:10;;;;;;;;;;;5.10;99.90;;;;;;2621999;46;20762;31
2022/11/08 05:36:13;;;;;;;;;;;5.10;99.90;;;;;;2621922;46;20007;31
2022/11/08 05:38:47;;;;;;;;;;;5.00;99.90;;;;;;2622044;46;20524;31
2022/11/08 05:41:21;;;;;;;;;;;5.00;99.90;;;;;;2621869;46;19934;31
2022/11/08 05:43:55;;;;;;;;;;;5.10;99.90;;;;;;2603601;54;19934;31
2022/11/08 05:46:32;;;;;;;;;;;5.00;99.90;;;;;;2603474;54;20724;31
2022/11/08 05:49:06;;;;;;;;;;;5.00;99.90;;;;;;2603290;54;19997;31
2022/11/08 05:51:40;;;;;;;;;;;5.00;99.90;;;;;;2603102;54;19935;31
2022/11/08 05:54:14;;;;;;;;;;;5.00;99.90;;;;;;2603399;54;20579;31
2022/11/08 05:56:47;;;;;;;;;;;5.00;99.90;;;;;;2603142;54;20782;31
2022/11/08 05:59:23;;;;;;;;;;;5.00;99.90;;;;;;2603474;54;19993;31
2022/11/08 06:02:03;;;;;;;;;;;5.00;99.90;;;;;;2622091;46;20725;31
2022/11/08 06:04:37;;;;;;;;;;;5.00;99.90;;;;;;2603458;54;19935;31
2022/11/08 06:07:11;;;;;;;;;;;5.00;99.90;;;;;;2603109;54;20747;31
2022/11/08 06:09:45;;;;;;;;;;;5.00;99.90;;;;;;2603240;54;20793;31
2022/11/08 06:12:19;;;;;;;;;;;5.00;99.90;;;;;;2621977;47;19943;31
2022/11/08 06:14:53;;;;;;;;;;;5.00;99.90;;;;;;2603246;54;19951;31
2022/11/08 06:17:30;;;;;;;;;;;5.00;99.90;;;;;;2603237;54;20742;31
2022/11/08 06:20:06;;;;;;;;;;;5.00;99.90;;;;;;2603213;54;19935;31
2022/11/08 06:22:42;;;;;;;;;;;5.00;99.90;;;;;;2621508;47;19935;31
2022/11/08 06:25:18;;;;;;;;;;;5.00;99.90;;;;;;2621739;47;19950;31
2022/11/08 06:27:55;;;;;;;;;;;5.00;99.90;;;;;;2621838;47;20823;31
2022/11/08 06:30:32;;;;;;;;;;;5.00;99.90;;;;;;2621645;47;19993;31
2022/11/08 06:33:09;;;;;;;;;;;5.00;99.90;;;;;;2603058;54;20762;31
2022/11/08 06:35:46;;;;;;;;;;;5.00;99.90;;;;;;2603113;54;20743;31
2022/11/08 06:38:21;;;;;;;;;;;5.00;99.90;;;;;;2603732;54;20775;31
2022/11/08 06:40:56;;;;;;;;;;;5.00;99.90;;;;;;2603810;54;20060;31
2022/11/08 06:43:28;;;;;;;;;;;5.10;99.90;;;;;;2603806;54;20791;31
2022/11/08 06:46:03;;;;;;;;;;;5.10;99.90;;;;;;2621792;46;19946;31
2022/11/08 06:48:37;;;;;;;;;;;5.10;99.90;;;;;;2620343;46;19997;31
2022/11/08 06:51:14;;;;;;;;;;;5.20;99.90;;;;;;2622427;46;19946;31
2022/11/08 06:53:49;;;;;;;;;;;5.30;99.90;;;;;;2622578;46;19934;31
2022/11/08 06:56:27;;;;;;;;;;;5.30;99.90;;;;;;2619254;46;20777;31
2022/11/08 06:59:01;;;;;;;;;;;5.60;99.90;;;;;;2613741;46;19998;31
2022/11/08 07:01:36;;;;;;;;;;;6.00;99.90;;;;;;2622086;46;19993;31
2022/11/08 07:04:18;;;;;;;;;;;6.60;99.90;;;;;;2622340;46;19946;31
2022/11/08 07:06:55;;;;;;;;;;;7.30;99.90;;;;;;2603893;54;19961;31
2022/11/08 07:09:31;;;;;;;;;;;7.90;99.90;;;;;;2603896;54;19935;31
2022/11/08 07:12:05;;;;;;;;;;;8.50;99.90;;;;;;2622228;46;19935;31
2022/11/08 07:14:39;;;;;;;;;;;9.10;99.90;;;;;;2603645;54;19942;31
2022/11/08 07:17:14;;;;;;;;;;;9.50;99.90;;;;;;2603738;54;19948;31
2022/11/08 07:19:50;;;;;;;;;;;10.00;99.90;;;;;;2603910;54;19989;31
2022/11/08 07:22:28;;;;;;;;;;;10.60;99.90;;;;;;2603850;54;19934;31
2022/11/08 07:25:02;;;;;;;;;;;11.10;99.90;;;;;;2603944;54;19941;31
2022/11/08 07:27:36;;;;;;;;;;;11.50;99.90;;;;;;2603683;54;20736;31
2022/11/08 07:30:13;;;;;;;;;;;11.70;99.90;;;;;;2603744;54;19934;31
2022/11/08 07:32:47;;;;;;;;;;;12.10;99.90;;;;;;2622462;46;19946;31
2022/11/08 07:35:22;;;;;;;;;;;12.60;99.90;;;;;;2603851;54;19934;31
2022/11/08 07:37:59;;;;;;;;;;;12.80;99.90;;;;;;2603560;54;20033;31
2022/11/08 07:40:36;;;;;;;;;;;13.00;99.90;;;;;;2603696;54;19965;31
2022/11/08 07:43:16;;;;;;;;;;;13.30;99.90;;;;;;2622256;46;20001;31
2022/11/08 07:45:55;;;;;;;;;;;13.50;99.90;;;;;;2603765;54;19942;31
2022/11/08 07:48:30;;;;;;;;;;;13.60;99.90;;;;;;2603670;54;20755;31
2022/11/08 07:51:05;;;;;;;;;;;13.70;99.90;;;;;;2603767;54;20740;31
2022/11/08 07:53:42;;;;;;;;;;;13.80;99.90;;;;;;2622281;46;20758;31
2022/11/08 07:56:16;;;;;;;;;;;13.80;99.90;;;;;;2603748;54;19935;31
2022/11/08 07:58:52;;;;;;;;;;;13.80;99.90;;;;;;2603652;54;20803;31
2022/11/08 08:01:26;;;;;;;;;;;13.80;99.90;;;;;;2603743;54;20757;31
2022/11/08 08:04:02;;;;;;;;;;;13.80;99.90;;;;;;2622405;46;20744;31
2022/11/08 08:06:37;;;;;;;;;;;13.50;99.90;;;;;;2603881;54;20683;31
2022/11/08 08:09:14;;;;;;;;;;;13.40;99.90;;;;;;2603762;54;20720;31
2022/11/08 08:11:48;;;;;;;;;;;13.40;99.90;;;;;;2621910;46;20754;31
2022/11/08 08:14:22;;;;;;;;;;;13.50;99.90;;;;;;2702360;39;20312;31
2022/11/08 08:16:56;;;;;;;;;;;13.60;99.90;;;;;;2603642;54;19934;31
2022/11/08 08:19:30;;;;;;;;;;;13.70;99.90;;;;;;2621632;46;19934;31
2022/11/08 08:22:04;;;;;;;;;;;14.10;99.90;;;;;;2603688;54;20770;31
2022/11/08 08:24:40;;;;;;;;;;;14.50;99.90;;;;;;2603662;54;19972;31
2022/11/08 08:27:15;;;;;;;;;;;14.50;99.90;;;;;;2603674;54;20001;31
2022/11/08 08:29:50;;;;;;;;;;;14.80;99.90;;;;;;2622319;46;20840;31
2022/11/08 08:32:27;;;;;;;;;;;14.80;99.90;;;;;;2622119;46;20013;31
2022/11/08 08:35:04;;;;;;;;;;;15.00;99.90;;;;;;2603582;54;19941;31
2022/11/08 08:37:38;;;;;;;;;;;15.20;99.90;;;;;;2603494;54;19934;31
2022/11/08 08:40:19;;;;;;;;;;;15.30;99.90;;;;;;2603586;54;20803;31
2022/11/08 08:42:56;;;;;;;;;;;15.40;99.90;;;;;;2603750;54;19956;31
2022/11/08 08:45:31;;;;;;;;;;;15.40;99.90;;;;;;2603515;54;20718;31
2022/11/08 08:48:06;;;;;;;;;;;15.40;99.90;;;;;;2604806;46;20768;31
2022/11/08 08:50:40;;;;;;;;;;;15.30;99.90;;;;;;2622229;46;19934;31
2022/11/08 08:53:14;;;;;;;;;;;15.30;99.90;;;;;;2603718;54;19934;31
2022/11/08 08:55:52;;;;;;;;;;;15.40;99.90;;;;;;2603604;54;20805;31
2022/11/08 08:58:28;;;;;;;;;;;15.60;99.90;;;;;;2603470;54;20724;31
2022/11/08 09:01:04;;;;;;;;;;;15.80;99.90;;;;;;2603613;54;20001;31
2022/11/08 09:03:58;;;;;;;;;;;15.80;99.90;;;;;;2603281;54;19935;31
2022/11/08 09:06:32;;;;;;;;;;;15.80;99.90;;;;;;2603663;54;19934;31
2022/11/08 09:09:07;;;;;;;;;;;15.90;99.90;;;;;;2603597;54;19997;31
2022/11/08 09:11:45;;;;;;;;;;;15.90;99.90;;;;;;2603608;54;20827;31
2022/11/08 09:14:20;;;;;;;;;;;15.90;99.90;;;;;;2603730;54;19935;31
2022/11/08 09:16:54;;;;;;;;;;;15.80;99.90;;;;;;2603457;54;19934;31
2022/11/08 09:19:30;;;;;;;;;;;15.60;99.90;;;;;;2621739;46;19947;31
2022/11/08 09:22:06;;;;;;;;;;;15.60;99.90;;;;;;2622187;46;20743;31
2022/11/08 09:24:42;;;;;;;;;;;15.60;99.90;;;;;;2603363;54;20737;31
2022/11/08 09:27:20;;;;;;;;;;;15.90;99.90;;;;;;2603691;54;20780;31
2022/11/08 09:29:55;;;;;;;;;;;16.00;99.90;;;;;;2603459;54;19941;31
2022/11/08 09:32:27;;;;;;;;;;;16.00;99.90;;;;;;2603758;54;20053;31
2022/11/08 09:35:23;;;;;;;;;;;16.00;99.90;;;;;;2621740;46;19935;31
2022/11/08 09:37:57;;;;;;;;;;;15.90;99.90;;;;;;2603236;54;19942;31
2022/11/08 09:40:33;;;;;;;;;;;15.90;99.90;;;;;;2603391;54;19934;31
2022/11/08 09:43:14;;;;;;;;;;;15.90;99.90;;;;;;2621952;46;19997;31
2022/11/08 09:45:49;;;;;;;;;;;15.90;99.90;;;;;;2621486;46;19946;31
2022/11/08 09:48:23;;;;;;;;;;;16.00;99.90;;;;;;2603311;54;19935;31
2022/11/08 09:50:58;;;;;;;;;;;16.10;99.90;;;;;;2609952;46;19942;31
2022/11/08 09:53:34;;;;;;;;;;;16.20;99.90;;;;;;2603321;54;19939;31
2022/11/08 09:56:10;;;;;;;;;;;16.30;99.90;;;;;;2603456;54;19942;31
2022/11/08 09:58:49;;;;;;;;;;;16.30;99.90;;;;;;2621783;46;19935;31
2022/11/08 10:01:24;;;;;;;;;;;16.50;99.90;;;;;;2621568;46;20864;31
2022/11/08 10:04:02;;;;;;;;;;;16.60;99.90;;;;;;2603469;54;19938;31
2022/11/08 10:06:44;;;;;;;;;;;16.70;99.90;;;;;;2603251;54;19983;31
2022/11/08 10:09:32;;;;;;;;;;;16.90;99.90;;;;;;2621458;47;20745;31
2022/11/08 10:12:11;;;;;;;;;;;16.80;99.90;;;;;;2603480;54;20054;31
2022/11/08 10:14:52;;;;;;;;;;;16.70;99.90;;;;;;2604062;54;20765;31
2022/11/08 10:17:36;;;;;;;;;;;16.70;99.90;;;;;;2622587;46;19942;31
2022/11/08 10:20:14;;;;;;;;;;;16.50;99.90;;;;;;2622546;46;19942;31
2022/11/08 10:22:51;;;;;;;;;;;16.50;99.90;;;;;;2622681;46;20856;31
2022/11/08 10:25:26;;;;;;;;;;;16.40;99.90;;;;;;2604290;54;19934;31
2022/11/08 10:28:01;;;;;;;;;;;16.40;99.90;;;;;;2622835;46;19934;31
2022/11/08 10:30:40;;;;;;;;;;;16.50;99.90;;;;;;2622524;46;19942;31
2022/11/08 10:33:16;;;;;;;;;;;16.50;99.90;;;;;;2603969;54;19942;31
2022/11/08 10:35:52;;;;;;;;;;;16.60;99.90;;;;;;2604205;54;19935;31
2022/11/08 10:38:36;;;;;;;;;;;16.70;99.90;;;;;;2604225;54;19993;31
2022/11/08 10:41:11;;;;;;;;;;;16.80;99.90;;;;;;2622434;46;19990;31
2022/11/08 10:43:45;;;;;;;;;;;16.70;99.90;;;;;;2603921;54;20764;31
2022/11/08 10:46:28;;;;;;;;;;;16.70;99.90;;;;;;2603770;54;19964;31
2022/11/08 10:49:03;;;;;;;;;;;16.60;99.90;;;;;;2603859;54;20795;31
2022/11/08 10:51:38;;;;;;;;;;;16.70;99.90;;;;;;2604068;54;19941;31
2022/11/08 10:54:14;;;;;;;;;;;16.70;99.90;;;;;;2604228;54;19994;31
2022/11/08 10:56:56;;;;;;;;;;;16.60;99.90;;;;;;2604002;54;19956;31
2022/11/08 10:59:34;;;;;;;;;;;16.60;99.90;;;;;;2603668;54;19934;31
2022/11/08 11:02:32;;;;;;;;;;;16.50;99.90;;;;;;2603772;54;20863;31
2022/11/08 11:05:25;;;;;;;;;;;16.50;99.90;;;;;;2603873;54;20785;31
2022/11/08 11:08:03;;;;;;;;;;;16.40;99.90;;;;;;2622670;46;19946;31
2022/11/08 11:10:40;;;;;;;;;;;16.40;99.90;;;;;;2622549;46;20013;31
2022/11/08 11:13:15;;;;;;;;;;;16.40;99.90;;;;;;2622524;46;19942;31
2022/11/08 11:15:52;;;;;;;;;;;16.40;99.90;;;;;;2622508;46;20013;31
2022/11/08 11:18:27;;;;;;;;;;;16.40;99.90;;;;;;2604062;54;19934;31
2022/11/08 11:21:06;;;;;;;;;;;16.30;99.90;;;;;;2603714;54;19942;31
2022/11/08 11:23:41;;;;;;;;;;;16.30;99.90;;;;;;2622457;46;20819;31
2022/11/08 11:26:29;;;;;;;;;;;16.30;99.90;;;;;;2622369;46;19941;31
2022/11/08 11:29:08;;;;;;;;;;;16.30;99.90;;;;;;2603855;54;19950;31
2022/11/08 11:31:44;;;;;;;;;;;16.30;99.90;;;;;;2622117;46;19985;31
2022/11/08 11:34:31;;;;;;;;;;;16.20;99.90;;;;;;2603752;54;19994;31
2022/11/08 11:37:13;;;;;;;;;;;16.20;99.90;;;;;;2603634;54;20697;31
2022/11/08 11:39:50;;;;;;;;;;;16.20;99.90;;;;;;2603866;54;20789;31
2022/11/08 11:42:25;;;;;;;;;;;16.20;99.90;;;;;;2603991;54;19958;31
2022/11/08 11:45:21;;;;;;;;;;;16.20;99.90;;;;;;2603632;54;20786;31
2022/11/08 11:47:56;;;;;;;;;;;16.20;99.90;;;;;;2603991;54;20021;31
2022/11/08 11:50:31;;;;;;;;;;;16.10;99.90;;;;;;2604007;54;20775;31
2022/11/08 11:53:13;;;;;;;;;;;16.10;99.90;;;;;;2603946;54;20027;31
2022/11/08 11:56:06;;;;;;;;;;;16.10;99.90;;;;;;2622362;46;19990;31
2022/11/08 11:59:13;;;;;;;;;;;16.10;99.90;;;;;;2618009;46;22378;31
2022/11/08 12:01:54;;;;;;;;;;;16.10;99.90;;;;;;2603563;54;19935;31
2022/11/08 12:04:43;;;;;;;;;;;16.10;99.90;;;;;;2622245;46;20867;31
2022/11/08 12:07:18;;;;;;;;;;;16.10;99.90;;;;;;2603651;54;19960;31
2022/11/08 12:10:00;;;;;;;;;;;16.10;99.90;;;;;;2603485;54;20808;31
2022/11/08 12:12:38;;;;;;;;;;;16.10;99.90;;;;;;2603851;54;19935;31
2022/11/08 12:15:14;;;;;;;;;;;16.00;99.90;;;;;;2622208;46;20737;31
2022/11/08 12:18:05;;;;;;;;;;;16.00;99.90;;;;;;2622238;46;19998;31
2022/11/08 12:20:45;;;;;;;;;;;16.00;99.90;;;;;;2604005;54;19941;31
2022/11/08 12:23:38;;;;;;;;;;;16.00;99.90;;;;;;2603610;54;19943;31
2022/11/08 12:26:17;;;;;;;;;;;16.00;99.90;;;;;;2621989;46;20030;31
2022/11/08 12:28:55;;;;;;;;;;;16.00;99.90;;;;;;2603808;54;19942;31
2022/11/08 12:31:34;;;;;;;;;;;16.00;99.90;;;;;;2603782;54;19946;31
2022/11/08 12:34:14;;;;;;;;;;;16.00;99.90;;;;;;2603537;54;19935;31
2022/11/08 12:36:50;;;;;;;;;;;15.90;99.90;;;;;;2603654;54;19941;31
2022/11/08 12:39:28;;;;;;;;;;;16.00;99.90;;;;;;2603392;54;19935;31
2022/11/08 12:42:09;;;;;;;;;;;15.90;99.90;;;;;;2603649;54;19965;31
2022/11/08 12:45:01;;;;;;;;;;;16.00;99.90;;;;;;2603630;54;19989;31
2022/11/08 12:47:37;;;;;;;;;;;16.00;99.90;;;;;;2603506;54;19956;31
2022/11/08 12:50:16;;;;;;;;;;;16.00;99.90;;;;;;2603662;54;20718;31
2022/11/08 12:52:55;;;;;;;;;;;16.00;99.90;;;;;;2603683;54;19939;31
2022/11/08 12:55:31;;;;;;;;;;;16.00;99.90;;;;;;2622154;46;20797;31
2022/11/08 12:58:11;;;;;;;;;;;16.00;99.90;;;;;;2603830;54;19942;31
2022/11/08 13:00:47;;;;;;;;;;;16.00;99.90;;;;;;2603458;54;20032;31
2022/11/08 13:03:28;;;;;;;;;;;16.00;99.90;;;;;;2622233;46;19942;31
2022/11/08 13:06:04;;;;;;;;;;;16.00;99.90;;;;;;2622029;46;19941;31
2022/11/08 13:08:41;;;;;;;;;;;16.10;99.90;;;;;;2702015;39;21429;31
2022/11/08 13:11:17;;;;;;;;;;;16.10;99.90;;;;;;2784560;31;21481;31
2022/11/08 13:13:57;;;;;;;;;;;16.10;99.90;;;;;;2602604;54;20800;31
2022/11/08 13:16:38;;;;;;;;;;;16.10;99.90;;;;;;2603335;54;19946;31
2022/11/08 13:19:13;;;;;;;;;;;16.10;99.90;;;;;;2603517;54;19956;31
2022/11/08 13:21:50;;;;;;;;;;;16.10;99.90;;;;;;2602884;54;20759;31
2022/11/08 13:24:35;;;;;;;;;;;16.10;99.90;;;;;;2603375;54;20711;31
2022/11/08 13:27:22;;;;;;;;;;;16.10;99.90;;;;;;2622204;46;20816;31
2022/11/08 13:30:00;;;;;;;;;;;16.10;99.90;;;;;;2622113;46;19939;31
2022/11/08 13:32:39;;;;;;;;;;;16.10;99.90;;;;;;2701782;39;21424;31
2022/11/08 13:35:18;;;;;;;;;;;16.10;99.90;;;;;;2603632;54;19935;31
2022/11/08 13:37:55;;;;;;;;;;;16.10;99.90;;;;;;2603348;54;20752;31
2022/11/08 13:40:30;;;;;;;;;;;16.10;99.90;;;;;;2603385;54;20821;31
2022/11/08 13:43:22;;;;;;;;;;;16.00;99.90;;;;;;2603494;54;19941;31
2022/11/08 13:45:58;;;;;;;;;;;16.00;99.90;;;;;;2602939;54;20756;31
2022/11/08 13:48:40;;;;;;;;;;;16.00;99.90;;;;;;2621773;46;19942;31
2022/11/08 13:51:24;;;;;;;;;;;16.00;99.90;;;;;;2603456;54;19946;31
2022/11/08 13:53:59;;;;;;;;;;;15.90;99.90;;;;;;2621811;46;19942;31
2022/11/08 13:56:43;;;;;;;;;;;15.90;99.90;;;;;;2603502;54;20797;31
2022/11/08 13:59:32;;;;;;;;;;;15.90;99.90;;;;;;2603341;54;19941;31
2022/11/08 14:02:12;;;;;;;;;;;15.90;99.90;;;;;;2603595;54;19961;31
2022/11/08 14:04:47;;;;;;;;;;;15.90;99.90;;;;;;2621840;46;19941;31
2022/11/08 14:07:25;;;;;;;;;;;15.80;99.90;;;;;;2621747;46;19960;31
2022/11/08 14:10:02;;;;;;;;;;;15.80;99.90;;;;;;2603180;54;19974;31
2022/11/08 14:12:40;;;;;;;;;;;15.80;99.90;;;;;;2603559;54;19935;31
2022/11/08 14:15:17;;;;;;;;;;;15.70;99.90;;;;;;2621940;47;19934;31
2022/11/08 14:17:55;;;;;;;;;;;15.70;99.90;;;;;;2603277;54;19934;31
2022/11/08 14:20:31;;;;;;;;;;;15.70;99.90;;;;;;2622081;47;19942;31
2022/11/08 14:23:06;;;;;;;;;;;15.60;99.90;;;;;;2603296;54;19935;31
2022/11/08 14:25:40;;;;;;;;;;;15.60;99.90;;;;;;2603055;54;20381;31
2022/11/08 14:28:27;;;;;;;;;;;15.60;99.90;;;;;;2603181;54;19942;31
2022/11/08 14:31:02;;;;;;;;;;;15.60;99.90;;;;;;2621895;47;19950;31
2022/11/08 14:33:45;;;;;;;;;;;15.50;99.90;;;;;;2602301;54;19954;31
2022/11/08 14:36:20;;;;;;;;;;;15.40;99.90;;;;;;2603123;54;20747;31
2022/11/08 14:39:11;;;;;;;;;;;15.40;99.90;;;;;;2603368;54;19957;31
2022/11/08 14:41:47;;;;;;;;;;;15.30;99.90;;;;;;2621661;47;20006;31
2022/11/08 14:44:23;;;;;;;;;;;15.30;99.90;;;;;;2603321;54;20006;31
2022/11/08 14:46:59;;;;;;;;;;;15.30;99.90;;;;;;2603262;54;19942;31
2022/11/08 14:49:40;;;;;;;;;;;15.20;99.90;;;;;;2603365;54;19934;31
2022/11/08 14:52:16;;;;;;;;;;;15.20;99.90;;;;;;2621830;47;20790;31
2022/11/08 14:54:50;;;;;;;;;;;15.10;99.90;;;;;;2603324;54;20773;31
2022/11/08 14:57:31;;;;;;;;;;;15.10;99.90;;;;;;2621455;47;19934;31
2022/11/08 15:00:11;;;;;;;;;;;15.00;99.90;;;;;;2604049;54;19998;31
2022/11/08 15:02:46;;;;;;;;;;;15.00;99.90;;;;;;2603950;54;20006;31
2022/11/08 15:05:38;;;;;;;;;;;15.00;99.90;;;;;;2622516;46;20714;31
2022/11/08 15:08:22;;;;;;;;;;;14.90;99.90;;;;;;2603889;54;20795;31
2022/11/08 15:11:00;;;;;;;;;;;14.90;99.90;;;;;;2609601;46;19941;31
2022/11/08 15:13:34;;;;;;;;;;;14.80;99.90;;;;;;2622763;46;20752;31
2022/11/08 15:16:10;;;;;;;;;;;14.80;99.90;;;;;;2604093;54;19942;31
2022/11/08 15:18:44;;;;;;;;;;;14.70;99.90;;;;;;2603978;54;20006;31
2022/11/08 15:21:27;;;;;;;;;;;14.70;99.90;;;;;;2603779;54;19938;31
2022/11/08 15:24:15;;;;;;;;;;;14.60;99.90;;;;;;2622402;46;19950;31
2022/11/08 15:27:07;;;;;;;;;;;14.60;99.90;;;;;;2622310;46;19959;31
2022/11/08 15:29:51;;;;;;;;;;;14.50;99.90;;;;;;2604187;54;20800;31
2022/11/08 15:32:26;;;;;;;;;;;14.50;99.90;;;;;;2603692;54;19934;31
2022/11/08 15:35:01;;;;;;;;;;;14.40;99.90;;;;;;2604006;54;19945;31
2022/11/08 15:37:35;;;;;;;;;;;14.40;99.90;;;;;;2622413;46;19993;31
2022/11/08 15:40:18;;;;;;;;;;;14.30;99.90;;;;;;2622456;46;19939;31
2022/11/08 15:42:52;;;;;;;;;;;14.30;99.90;;;;;;2603713;54;20754;31
2022/11/08 15:45:27;;;;;;;;;;;14.30;99.90;;;;;;2622402;46;20793;31
2022/11/08 15:48:16;;;;;;;;;;;14.20;99.90;;;;;;2603653;54;19934;31
2022/11/08 15:50:50;;;;;;;;;;;14.20;99.90;;;;;;2603656;54;19935;31
2022/11/08 15:53:25;;;;;;;;;;;14.10;99.90;;;;;;2622267;46;20010;31